sensor_id;sensor_type;location;lat;lon;timestamp;P1;durP1;ratioP1;P2;durP2;ratioP2
52858;SDS011;38721;53.098;6.596;2022-09-01T00:02:22;3.53;;;2.80;;
52858;SDS011;38721;53.098;6.596;2022-09-01T00:04:51;5.88;;;3.30;;
52858;SDS011;38721;53.098;6.596;2022-09-01T00:07:16;5.20;;;3.63;;
52858;SDS011;38721;53.098;6.596;2022-09-01T00:09:42;4.90;;;3.15;;
52858;SDS011;38721;53.098;6.596;2022-09-01T00:12:08;5.07;;;3.22;;
52858;SDS011;38721;53.098;6.596;2022-09-01T00:14:35;4.57;;;3.10;;
52858;SDS011;38721;53.098;6.596;2022-09-01T00:17:04;4.63;;;3.20;;
52858;SDS011;38721;53.098;6.596;2022-09-01T00:19:31;4.53;;;3.05;;
52858;SDS011;38721;53.098;6.596;2022-09-01T00:21:58;4.45;;;3.53;;
52858;SDS011;38721;53.098;6.596;2022-09-01T00:24:24;3.65;;;3.10;;
52858;SDS011;38721;53.098;6.596;2022-09-01T00:26:51;4.95;;;3.47;;
52858;SDS011;38721;53.098;6.596;2022-09-01T00:29:18;6.65;;;3.55;;
52858;SDS011;38721;53.098;6.596;2022-09-01T00:31:44;4.10;;;3.45;;
52858;SDS011;38721;53.098;6.596;2022-09-01T00:34:10;4.10;;;3.50;;
52858;SDS011;38721;53.098;6.596;2022-09-01T00:36:39;4.30;;;3.70;;
52858;SDS011;38721;53.098;6.596;2022-09-01T00:39:04;3.90;;;3.20;;
52858;SDS011;38721;53.098;6.596;2022-09-01T00:41:32;5.80;;;3.67;;
52858;SDS011;38721;53.098;6.596;2022-09-01T00:44:01;4.75;;;3.67;;
52858;SDS011;38721;53.098;6.596;2022-09-01T00:46:33;5.20;;;3.67;;
52858;SDS011;38721;53.098;6.596;2022-09-01T00:49:35;3.50;;;3.15;;
52858;SDS011;38721;53.098;6.596;2022-09-01T00:54:44;5.00;;;3.63;;
52858;SDS011;38721;53.098;6.596;2022-09-01T00:57:15;5.25;;;3.60;;
52858;SDS011;38721;53.098;6.596;2022-09-01T01:00:03;4.90;;;3.28;;
52858;SDS011;38721;53.098;6.596;2022-09-01T01:02:35;4.13;;;3.13;;
52858;SDS011;38721;53.098;6.596;2022-09-01T01:05:03;6.07;;;3.30;;
52858;SDS011;38721;53.098;6.596;2022-09-01T01:07:29;4.25;;;2.80;;
52858;SDS011;38721;53.098;6.596;2022-09-01T01:09:57;3.53;;;2.70;;
52858;SDS011;38721;53.098;6.596;2022-09-01T01:12:23;2.85;;;2.50;;
52858;SDS011;38721;53.098;6.596;2022-09-01T01:14:51;4.85;;;2.50;;
52858;SDS011;38721;53.098;6.596;2022-09-01T01:17:18;3.80;;;2.65;;
52858;SDS011;38721;53.098;6.596;2022-09-01T01:19:52;3.63;;;2.60;;
52858;SDS011;38721;53.098;6.596;2022-09-01T01:25:49;3.05;;;2.40;;
52858;SDS011;38721;53.098;6.596;2022-09-01T01:28:22;2.40;;;2.20;;
52858;SDS011;38721;53.098;6.596;2022-09-01T01:30:58;3.67;;;2.55;;
52858;SDS011;38721;53.098;6.596;2022-09-01T01:33:41;3.03;;;1.95;;
52858;SDS011;38721;53.098;6.596;2022-09-01T01:36:13;4.10;;;2.17;;
52858;SDS011;38721;53.098;6.596;2022-09-01T01:38:47;5.00;;;2.20;;
52858;SDS011;38721;53.098;6.596;2022-09-01T01:41:14;2.85;;;2.22;;
52858;SDS011;38721;53.098;6.596;2022-09-01T01:43:42;2.65;;;2.40;;
52858;SDS011;38721;53.098;6.596;2022-09-01T01:46:08;3.05;;;2.38;;
52858;SDS011;38721;53.098;6.596;2022-09-01T01:48:37;3.17;;;1.95;;
52858;SDS011;38721;53.098;6.596;2022-09-01T01:51:04;2.58;;;2.22;;
52858;SDS011;38721;53.098;6.596;2022-09-01T01:53:30;2.67;;;2.00;;
52858;SDS011;38721;53.098;6.596;2022-09-01T01:55:56;2.97;;;2.17;;
52858;SDS011;38721;53.098;6.596;2022-09-01T01:58:24;4.10;;;2.22;;
52858;SDS011;38721;53.098;6.596;2022-09-01T02:00:53;3.38;;;2.17;;
52858;SDS011;38721;53.098;6.596;2022-09-01T02:03:20;3.25;;;2.10;;
52858;SDS011;38721;53.098;6.596;2022-09-01T02:05:49;3.15;;;2.10;;
52858;SDS011;38721;53.098;6.596;2022-09-01T02:08:17;2.13;;;1.92;;
52858;SDS011;38721;53.098;6.596;2022-09-01T02:10:48;4.38;;;1.88;;
52858;SDS011;38721;53.098;6.596;2022-09-01T02:13:16;2.13;;;1.90;;
52858;SDS011;38721;53.098;6.596;2022-09-01T02:15:51;3.45;;;2.13;;
52858;SDS011;38721;53.098;6.596;2022-09-01T02:18:26;4.63;;;2.20;;
52858;SDS011;38721;53.098;6.596;2022-09-01T02:20:58;3.05;;;2.00;;
52858;SDS011;38721;53.098;6.596;2022-09-01T02:23:25;3.08;;;1.90;;
52858;SDS011;38721;53.098;6.596;2022-09-01T02:25:56;3.45;;;2.10;;
52858;SDS011;38721;53.098;6.596;2022-09-01T02:28:26;3.38;;;2.00;;
52858;SDS011;38721;53.098;6.596;2022-09-01T02:30:56;4.55;;;2.05;;
52858;SDS011;38721;53.098;6.596;2022-09-01T02:33:24;4.53;;;2.08;;
52858;SDS011;38721;53.098;6.596;2022-09-01T02:35:59;3.00;;;2.03;;
52858;SDS011;38721;53.098;6.596;2022-09-01T02:38:30;4.00;;;2.00;;
52858;SDS011;38721;53.098;6.596;2022-09-01T02:40:59;3.15;;;1.60;;
52858;SDS011;38721;53.098;6.596;2022-09-01T02:43:27;3.22;;;1.90;;
52858;SDS011;38721;53.098;6.596;2022-09-01T02:45:58;4.65;;;2.20;;
52858;SDS011;38721;53.098;6.596;2022-09-01T02:48:29;2.45;;;1.90;;
52858;SDS011;38721;53.098;6.596;2022-09-01T02:50:57;3.85;;;1.83;;
52858;SDS011;38721;53.098;6.596;2022-09-01T02:53:27;3.00;;;2.25;;
52858;SDS011;38721;53.098;6.596;2022-09-01T02:55:53;2.25;;;1.83;;
52858;SDS011;38721;53.098;6.596;2022-09-01T02:58:22;2.25;;;2.00;;
52858;SDS011;38721;53.098;6.596;2022-09-01T03:00:56;3.75;;;1.85;;
52858;SDS011;38721;53.098;6.596;2022-09-01T03:03:23;4.53;;;2.22;;
52858;SDS011;38721;53.098;6.596;2022-09-01T03:05:52;2.53;;;1.90;;
52858;SDS011;38721;53.098;6.596;2022-09-01T03:08:22;2.00;;;1.80;;
52858;SDS011;38721;53.098;6.596;2022-09-01T03:10:48;3.00;;;2.10;;
52858;SDS011;38721;53.098;6.596;2022-09-01T03:13:18;3.58;;;1.98;;
52858;SDS011;38721;53.098;6.596;2022-09-01T03:15:46;2.67;;;2.05;;
52858;SDS011;38721;53.098;6.596;2022-09-01T03:18:12;2.92;;;2.00;;
52858;SDS011;38721;53.098;6.596;2022-09-01T03:20:39;4.13;;;2.10;;
52858;SDS011;38721;53.098;6.596;2022-09-01T03:23:09;2.67;;;1.95;;
52858;SDS011;38721;53.098;6.596;2022-09-01T03:25:39;2.60;;;1.90;;
52858;SDS011;38721;53.098;6.596;2022-09-01T03:28:06;4.03;;;1.85;;
52858;SDS011;38721;53.098;6.596;2022-09-01T03:30:33;2.13;;;1.80;;
52858;SDS011;38721;53.098;6.596;2022-09-01T03:33:01;3.00;;;2.22;;
52858;SDS011;38721;53.098;6.596;2022-09-01T03:35:27;2.63;;;2.00;;
52858;SDS011;38721;53.098;6.596;2022-09-01T03:37:56;3.03;;;2.10;;
52858;SDS011;38721;53.098;6.596;2022-09-01T03:40:23;2.60;;;1.88;;
52858;SDS011;38721;53.098;6.596;2022-09-01T03:42:52;2.60;;;2.03;;
52858;SDS011;38721;53.098;6.596;2022-09-01T03:45:19;2.28;;;2.00;;
52858;SDS011;38721;53.098;6.596;2022-09-01T03:47:46;2.35;;;2.15;;
52858;SDS011;38721;53.098;6.596;2022-09-01T03:50:17;2.65;;;2.00;;
52858;SDS011;38721;53.098;6.596;2022-09-01T03:52:48;3.88;;;2.50;;
52858;SDS011;38721;53.098;6.596;2022-09-01T03:55:18;2.50;;;2.00;;
52858;SDS011;38721;53.098;6.596;2022-09-01T03:57:52;2.93;;;2.10;;
52858;SDS011;38721;53.098;6.596;2022-09-01T04:00:20;3.67;;;2.20;;
52858;SDS011;38721;53.098;6.596;2022-09-01T04:02:53;2.53;;;2.20;;
52858;SDS011;38721;53.098;6.596;2022-09-01T04:05:22;3.35;;;2.20;;
52858;SDS011;38721;53.098;6.596;2022-09-01T04:07:53;2.60;;;2.13;;
52858;SDS011;38721;53.098;6.596;2022-09-01T04:10:21;3.67;;;2.22;;
52858;SDS011;38721;53.098;6.596;2022-09-01T04:12:47;2.70;;;2.40;;
52858;SDS011;38721;53.098;6.596;2022-09-01T04:15:14;2.90;;;2.25;;
52858;SDS011;38721;53.098;6.596;2022-09-01T04:17:43;2.40;;;2.20;;
52858;SDS011;38721;53.098;6.596;2022-09-01T04:20:32;2.70;;;2.22;;
52858;SDS011;38721;53.098;6.596;2022-09-01T04:23:04;5.13;;;2.40;;
52858;SDS011;38721;53.098;6.596;2022-09-01T04:25:35;2.85;;;2.20;;
52858;SDS011;38721;53.098;6.596;2022-09-01T04:28:03;3.85;;;2.40;;
52858;SDS011;38721;53.098;6.596;2022-09-01T04:30:38;2.97;;;2.47;;
52858;SDS011;38721;53.098;6.596;2022-09-01T04:33:07;4.40;;;2.47;;
52858;SDS011;38721;53.098;6.596;2022-09-01T04:35:40;3.38;;;2.67;;
52858;SDS011;38721;53.098;6.596;2022-09-01T04:38:05;2.67;;;2.03;;
52858;SDS011;38721;53.098;6.596;2022-09-01T04:40:36;3.28;;;2.30;;
52858;SDS011;38721;53.098;6.596;2022-09-01T04:43:03;4.70;;;2.60;;
52858;SDS011;38721;53.098;6.596;2022-09-01T04:45:29;2.45;;;2.22;;
52858;SDS011;38721;53.098;6.596;2022-09-01T04:47:56;3.75;;;2.50;;
52858;SDS011;38721;53.098;6.596;2022-09-01T04:50:24;3.25;;;2.33;;
52858;SDS011;38721;53.098;6.596;2022-09-01T04:52:54;2.60;;;2.35;;
52858;SDS011;38721;53.098;6.596;2022-09-01T04:55:19;3.25;;;2.65;;
52858;SDS011;38721;53.098;6.596;2022-09-01T04:57:46;2.90;;;2.60;;
52858;SDS011;38721;53.098;6.596;2022-09-01T05:00:17;3.35;;;2.50;;
52858;SDS011;38721;53.098;6.596;2022-09-01T05:02:52;4.05;;;2.45;;
52858;SDS011;38721;53.098;6.596;2022-09-01T05:05:19;3.95;;;2.70;;
52858;SDS011;38721;53.098;6.596;2022-09-01T05:07:46;3.08;;;2.70;;
52858;SDS011;38721;53.098;6.596;2022-09-01T05:10:20;3.47;;;2.53;;
52858;SDS011;38721;53.098;6.596;2022-09-01T05:12:47;3.85;;;3.30;;
52858;SDS011;38721;53.098;6.596;2022-09-01T05:15:14;4.25;;;2.72;;
52858;SDS011;38721;53.098;6.596;2022-09-01T05:17:41;2.90;;;2.55;;
52858;SDS011;38721;53.098;6.596;2022-09-01T05:20:08;4.00;;;2.80;;
52858;SDS011;38721;53.098;6.596;2022-09-01T05:22:35;3.22;;;2.53;;
52858;SDS011;38721;53.098;6.596;2022-09-01T05:25:05;3.22;;;2.65;;
52858;SDS011;38721;53.098;6.596;2022-09-01T05:27:41;2.80;;;2.60;;
52858;SDS011;38721;53.098;6.596;2022-09-01T05:30:16;3.95;;;2.63;;
52858;SDS011;38721;53.098;6.596;2022-09-01T05:32:43;6.53;;;3.10;;
52858;SDS011;38721;53.098;6.596;2022-09-01T05:35:13;3.08;;;2.55;;
52858;SDS011;38721;53.098;6.596;2022-09-01T05:37:39;4.35;;;3.20;;
52858;SDS011;38721;53.098;6.596;2022-09-01T05:40:07;4.43;;;2.85;;
52858;SDS011;38721;53.098;6.596;2022-09-01T05:42:40;3.50;;;2.80;;
52858;SDS011;38721;53.098;6.596;2022-09-01T05:45:09;6.95;;;2.83;;
52858;SDS011;38721;53.098;6.596;2022-09-01T05:47:42;3.40;;;2.72;;
52858;SDS011;38721;53.098;6.596;2022-09-01T05:50:07;4.97;;;3.35;;
52858;SDS011;38721;53.098;6.596;2022-09-01T05:52:35;3.97;;;2.83;;
52858;SDS011;38721;53.098;6.596;2022-09-01T05:55:02;4.05;;;3.05;;
52858;SDS011;38721;53.098;6.596;2022-09-01T05:57:31;4.13;;;2.90;;
52858;SDS011;38721;53.098;6.596;2022-09-01T05:59:59;4.60;;;3.20;;
52858;SDS011;38721;53.098;6.596;2022-09-01T06:02:26;3.80;;;2.97;;
52858;SDS011;38721;53.098;6.596;2022-09-01T06:04:52;3.90;;;3.00;;
52858;SDS011;38721;53.098;6.596;2022-09-01T06:07:21;3.28;;;2.83;;
52858;SDS011;38721;53.098;6.596;2022-09-01T06:09:47;3.10;;;2.80;;
52858;SDS011;38721;53.098;6.596;2022-09-01T06:12:14;3.17;;;2.80;;
52858;SDS011;38721;53.098;6.596;2022-09-01T06:14:48;3.10;;;2.80;;
52858;SDS011;38721;53.098;6.596;2022-09-01T06:17:19;5.63;;;3.00;;
52858;SDS011;38721;53.098;6.596;2022-09-01T06:19:49;2.70;;;2.50;;
52858;SDS011;38721;53.098;6.596;2022-09-01T06:22:17;5.85;;;2.78;;
52858;SDS011;38721;53.098;6.596;2022-09-01T06:24:44;4.68;;;2.70;;
52858;SDS011;38721;53.098;6.596;2022-09-01T06:27:12;4.35;;;2.65;;
52858;SDS011;38721;53.098;6.596;2022-09-01T06:29:45;5.70;;;3.30;;
52858;SDS011;38721;53.098;6.596;2022-09-01T06:32:22;3.90;;;2.75;;
52858;SDS011;38721;53.098;6.596;2022-09-01T06:34:49;3.47;;;2.90;;
52858;SDS011;38721;53.098;6.596;2022-09-01T06:37:16;6.18;;;2.85;;
52858;SDS011;38721;53.098;6.596;2022-09-01T06:39:46;3.42;;;2.85;;
52858;SDS011;38721;53.098;6.596;2022-09-01T06:42:13;5.03;;;3.08;;
52858;SDS011;38721;53.098;6.596;2022-09-01T06:44:39;3.97;;;2.88;;
52858;SDS011;38721;53.098;6.596;2022-09-01T06:47:05;4.85;;;2.80;;
52858;SDS011;38721;53.098;6.596;2022-09-01T06:49:32;4.88;;;2.80;;
52858;SDS011;38721;53.098;6.596;2022-09-01T06:51:59;3.50;;;2.80;;
52858;SDS011;38721;53.098;6.596;2022-09-01T06:54:27;3.65;;;2.97;;
52858;SDS011;38721;53.098;6.596;2022-09-01T06:57:00;5.63;;;2.60;;
52858;SDS011;38721;53.098;6.596;2022-09-01T06:59:28;6.35;;;3.00;;
52858;SDS011;38721;53.098;6.596;2022-09-01T07:01:58;4.85;;;2.33;;
52858;SDS011;38721;53.098;6.596;2022-09-01T07:04:29;3.33;;;2.70;;
52858;SDS011;38721;53.098;6.596;2022-09-01T07:06:55;3.13;;;2.83;;
52858;SDS011;38721;53.098;6.596;2022-09-01T07:09:21;4.38;;;2.50;;
52858;SDS011;38721;53.098;6.596;2022-09-01T07:11:47;3.50;;;2.58;;
52858;SDS011;38721;53.098;6.596;2022-09-01T07:14:14;6.03;;;2.67;;
52858;SDS011;38721;53.098;6.596;2022-09-01T07:16:41;2.95;;;2.60;;
52858;SDS011;38721;53.098;6.596;2022-09-01T07:19:08;4.07;;;2.40;;
52858;SDS011;38721;53.098;6.596;2022-09-01T07:21:39;4.72;;;2.53;;
52858;SDS011;38721;53.098;6.596;2022-09-01T07:24:06;3.83;;;2.28;;
52858;SDS011;38721;53.098;6.596;2022-09-01T07:26:33;3.15;;;2.30;;
52858;SDS011;38721;53.098;6.596;2022-09-01T07:29:00;4.20;;;2.50;;
52858;SDS011;38721;53.098;6.596;2022-09-01T07:31:30;5.55;;;2.50;;
52858;SDS011;38721;53.098;6.596;2022-09-01T07:34:01;5.75;;;2.30;;
52858;SDS011;38721;53.098;6.596;2022-09-01T07:36:29;3.35;;;2.58;;
52858;SDS011;38721;53.098;6.596;2022-09-01T07:38:57;2.28;;;2.03;;
52858;SDS011;38721;53.098;6.596;2022-09-01T07:41:24;4.18;;;2.30;;
52858;SDS011;38721;53.098;6.596;2022-09-01T07:43:51;4.72;;;2.20;;
52858;SDS011;38721;53.098;6.596;2022-09-01T07:46:19;2.72;;;2.00;;
52858;SDS011;38721;53.098;6.596;2022-09-01T07:48:47;3.15;;;2.30;;
52858;SDS011;38721;53.098;6.596;2022-09-01T07:51:14;4.35;;;2.00;;
52858;SDS011;38721;53.098;6.596;2022-09-01T07:53:44;2.53;;;1.98;;
52858;SDS011;38721;53.098;6.596;2022-09-01T07:56:14;3.60;;;2.25;;
52858;SDS011;38721;53.098;6.596;2022-09-01T07:58:43;3.25;;;2.22;;
52858;SDS011;38721;53.098;6.596;2022-09-01T08:01:10;2.75;;;2.13;;
52858;SDS011;38721;53.098;6.596;2022-09-01T08:03:38;3.15;;;2.25;;
52858;SDS011;38721;53.098;6.596;2022-09-01T08:06:06;3.15;;;2.33;;
52858;SDS011;38721;53.098;6.596;2022-09-01T08:08:35;3.75;;;2.58;;
52858;SDS011;38721;53.098;6.596;2022-09-01T08:11:03;6.03;;;2.20;;
52858;SDS011;38721;53.098;6.596;2022-09-01T08:13:30;3.20;;;1.90;;
52858;SDS011;38721;53.098;6.596;2022-09-01T08:15:56;2.75;;;1.70;;
52858;SDS011;38721;53.098;6.596;2022-09-01T08:18:22;3.95;;;2.10;;
52858;SDS011;38721;53.098;6.596;2022-09-01T08:20:51;2.15;;;1.77;;
52858;SDS011;38721;53.098;6.596;2022-09-01T08:23:20;3.53;;;1.65;;
52858;SDS011;38721;53.098;6.596;2022-09-01T08:25:56;6.55;;;1.75;;
52858;SDS011;38721;53.098;6.596;2022-09-01T08:28:29;4.93;;;1.70;;
52858;SDS011;38721;53.098;6.596;2022-09-01T08:30:54;3.08;;;1.70;;
52858;SDS011;38721;53.098;6.596;2022-09-01T08:33:20;3.75;;;1.88;;
52858;SDS011;38721;53.098;6.596;2022-09-01T08:35:47;3.50;;;2.05;;
52858;SDS011;38721;53.098;6.596;2022-09-01T08:38:13;2.85;;;2.00;;
52858;SDS011;38721;53.098;6.596;2022-09-01T08:40:40;1.70;;;1.60;;
52858;SDS011;38721;53.098;6.596;2022-09-01T08:43:14;5.82;;;1.85;;
52858;SDS011;38721;53.098;6.596;2022-09-01T08:45:51;2.33;;;1.70;;
52858;SDS011;38721;53.098;6.596;2022-09-01T08:48:40;3.17;;;1.90;;
52858;SDS011;38721;53.098;6.596;2022-09-01T08:51:20;2.40;;;1.73;;
52858;SDS011;38721;53.098;6.596;2022-09-01T08:54:16;2.42;;;1.63;;
52858;SDS011;38721;53.098;6.596;2022-09-01T08:56:46;6.07;;;1.80;;
52858;SDS011;38721;53.098;6.596;2022-09-01T08:59:20;1.85;;;1.40;;
52858;SDS011;38721;53.098;6.596;2022-09-01T09:01:52;2.92;;;1.70;;
52858;SDS011;38721;53.098;6.596;2022-09-01T09:09:20;3.35;;;1.70;;
52858;SDS011;38721;53.098;6.596;2022-09-01T09:12:25;3.03;;;1.20;;
52858;SDS011;38721;53.098;6.596;2022-09-01T09:21:13;6.85;;;1.80;;
52858;SDS011;38721;53.098;6.596;2022-09-01T09:23:47;4.78;;;1.40;;
52858;SDS011;38721;53.098;6.596;2022-09-01T09:26:18;3.70;;;1.38;;
52858;SDS011;38721;53.098;6.596;2022-09-01T09:28:44;3.10;;;1.48;;
52858;SDS011;38721;53.098;6.596;2022-09-01T09:33:53;2.83;;;1.48;;
52858;SDS011;38721;53.098;6.596;2022-09-01T09:36:21;3.67;;;1.40;;
52858;SDS011;38721;53.098;6.596;2022-09-01T09:39:04;2.50;;;1.33;;
52858;SDS011;38721;53.098;6.596;2022-09-01T09:41:36;3.28;;;1.40;;
52858;SDS011;38721;53.098;6.596;2022-09-01T09:46:38;2.17;;;1.33;;
52858;SDS011;38721;53.098;6.596;2022-09-01T09:52:17;3.03;;;1.25;;
52858;SDS011;38721;53.098;6.596;2022-09-01T09:55:00;1.92;;;1.08;;
52858;SDS011;38721;53.098;6.596;2022-09-01T09:57:31;3.75;;;1.20;;
52858;SDS011;38721;53.098;6.596;2022-09-01T10:03:07;3.03;;;1.33;;
52858;SDS011;38721;53.098;6.596;2022-09-01T10:05:47;2.78;;;1.10;;
52858;SDS011;38721;53.098;6.596;2022-09-01T10:10:58;1.17;;;0.95;;
52858;SDS011;38721;53.098;6.596;2022-09-01T10:13:25;1.90;;;1.02;;
52858;SDS011;38721;53.098;6.596;2022-09-01T10:15:57;2.78;;;0.98;;
52858;SDS011;38721;53.098;6.596;2022-09-01T10:18:28;1.88;;;1.05;;
52858;SDS011;38721;53.098;6.596;2022-09-01T10:21:03;3.13;;;1.10;;
52858;SDS011;38721;53.098;6.596;2022-09-01T10:23:32;1.95;;;0.80;;
52858;SDS011;38721;53.098;6.596;2022-09-01T10:26:03;1.77;;;1.02;;
52858;SDS011;38721;53.098;6.596;2022-09-01T10:28:37;1.48;;;0.70;;
52858;SDS011;38721;53.098;6.596;2022-09-01T10:31:12;0.63;;;0.63;;
52858;SDS011;38721;53.098;6.596;2022-09-01T10:33:38;1.35;;;0.80;;
52858;SDS011;38721;53.098;6.596;2022-09-01T10:36:07;4.03;;;1.10;;
52858;SDS011;38721;53.098;6.596;2022-09-01T10:38:33;2.67;;;0.70;;
52858;SDS011;38721;53.098;6.596;2022-09-01T10:40:59;2.50;;;1.05;;
52858;SDS011;38721;53.098;6.596;2022-09-01T10:43:46;1.88;;;0.90;;
52858;SDS011;38721;53.098;6.596;2022-09-01T10:46:40;1.15;;;0.63;;
52858;SDS011;38721;53.098;6.596;2022-09-01T10:49:02;4.13;;;1.00;;
52858;SDS011;38721;53.098;6.596;2022-09-01T10:52:06;2.45;;;0.90;;
52858;SDS011;38721;53.098;6.596;2022-09-01T11:00:18;2.25;;;0.80;;
52858;SDS011;38721;53.098;6.596;2022-09-01T11:03:34;1.92;;;0.90;;
52858;SDS011;38721;53.098;6.596;2022-09-01T11:06:06;1.70;;;0.90;;
52858;SDS011;38721;53.098;6.596;2022-09-01T11:08:44;1.42;;;0.90;;
52858;SDS011;38721;53.098;6.596;2022-09-01T11:13:49;4.30;;;0.73;;
52858;SDS011;38721;53.098;6.596;2022-09-01T11:27:11;1.60;;;0.90;;
52858;SDS011;38721;53.098;6.596;2022-09-01T11:29:58;2.60;;;1.00;;
52858;SDS011;38721;53.098;6.596;2022-09-01T11:32:31;1.35;;;0.80;;
52858;SDS011;38721;53.098;6.596;2022-09-01T11:35:01;2.55;;;0.90;;
52858;SDS011;38721;53.098;6.596;2022-09-01T11:37:29;2.40;;;0.85;;
52858;SDS011;38721;53.098;6.596;2022-09-01T11:39:58;1.15;;;0.95;;
52858;SDS011;38721;53.098;6.596;2022-09-01T11:42:27;0.73;;;0.65;;
52858;SDS011;38721;53.098;6.596;2022-09-01T11:47:49;2.88;;;0.82;;
52858;SDS011;38721;53.098;6.596;2022-09-01T11:52:55;1.75;;;0.65;;
52858;SDS011;38721;53.098;6.596;2022-09-01T11:55:31;1.20;;;0.80;;
52858;SDS011;38721;53.098;6.596;2022-09-01T11:58:04;1.02;;;0.88;;
52858;SDS011;38721;53.098;6.596;2022-09-01T12:00:32;2.53;;;0.90;;
52858;SDS011;38721;53.098;6.596;2022-09-01T12:03:17;1.52;;;0.75;;
52858;SDS011;38721;53.098;6.596;2022-09-01T12:05:45;1.77;;;0.80;;
52858;SDS011;38721;53.098;6.596;2022-09-01T12:08:23;1.58;;;0.90;;
52858;SDS011;38721;53.098;6.596;2022-09-01T12:11:01;4.93;;;0.73;;
52858;SDS011;38721;53.098;6.596;2022-09-01T12:13:30;2.58;;;0.60;;
52858;SDS011;38721;53.098;6.596;2022-09-01T12:15:57;1.83;;;0.60;;
52858;SDS011;38721;53.098;6.596;2022-09-01T12:18:43;2.05;;;0.85;;
52858;SDS011;38721;53.098;6.596;2022-09-01T12:21:16;1.00;;;0.70;;
52858;SDS011;38721;53.098;6.596;2022-09-01T12:27:00;1.55;;;0.80;;
52858;SDS011;38721;53.098;6.596;2022-09-01T12:29:28;3.13;;;0.93;;
52858;SDS011;38721;53.098;6.596;2022-09-01T12:31:55;0.88;;;0.50;;
52858;SDS011;38721;53.098;6.596;2022-09-01T12:39:43;2.70;;;0.80;;
52858;SDS011;38721;53.098;6.596;2022-09-01T12:47:17;1.13;;;0.50;;
52858;SDS011;38721;53.098;6.596;2022-09-01T12:50:03;2.67;;;0.70;;
52858;SDS011;38721;53.098;6.596;2022-09-01T12:52:29;2.25;;;0.80;;
52858;SDS011;38721;53.098;6.596;2022-09-01T12:58:05;1.20;;;0.80;;
52858;SDS011;38721;53.098;6.596;2022-09-01T13:02:48;3.55;;;0.90;;
52858;SDS011;38721;53.098;6.596;2022-09-01T13:07:45;1.30;;;0.85;;
52858;SDS011;38721;53.098;6.596;2022-09-01T13:10:11;3.30;;;0.80;;
52858;SDS011;38721;53.098;6.596;2022-09-01T13:12:43;2.88;;;1.08;;
52858;SDS011;38721;53.098;6.596;2022-09-01T13:15:10;3.10;;;0.80;;
52858;SDS011;38721;53.098;6.596;2022-09-01T13:17:36;2.53;;;0.80;;
52858;SDS011;38721;53.098;6.596;2022-09-01T13:20:05;3.90;;;0.75;;
52858;SDS011;38721;53.098;6.596;2022-09-01T13:22:32;0.77;;;0.63;;
52858;SDS011;38721;53.098;6.596;2022-09-01T13:24:59;2.35;;;0.90;;
52858;SDS011;38721;53.098;6.596;2022-09-01T13:27:25;1.10;;;0.88;;
52858;SDS011;38721;53.098;6.596;2022-09-01T13:29:51;2.60;;;0.80;;
52858;SDS011;38721;53.098;6.596;2022-09-01T13:32:18;0.93;;;0.40;;
52858;SDS011;38721;53.098;6.596;2022-09-01T13:34:44;1.17;;;0.80;;
52858;SDS011;38721;53.098;6.596;2022-09-01T13:37:10;4.63;;;0.75;;
52858;SDS011;38721;53.098;6.596;2022-09-01T13:39:36;2.85;;;0.65;;
52858;SDS011;38721;53.098;6.596;2022-09-01T13:42:02;1.50;;;0.60;;
52858;SDS011;38721;53.098;6.596;2022-09-01T13:44:28;1.77;;;0.80;;
52858;SDS011;38721;53.098;6.596;2022-09-01T13:46:53;0.93;;;0.70;;
52858;SDS011;38721;53.098;6.596;2022-09-01T13:49:19;0.70;;;0.52;;
52858;SDS011;38721;53.098;6.596;2022-09-01T13:51:54;2.28;;;0.82;;
52858;SDS011;38721;53.098;6.596;2022-09-01T13:54:19;1.05;;;0.40;;
52858;SDS011;38721;53.098;6.596;2022-09-01T13:56:45;1.73;;;0.63;;
52858;SDS011;38721;53.098;6.596;2022-09-01T13:59:11;1.30;;;0.73;;
52858;SDS011;38721;53.098;6.596;2022-09-01T14:01:36;1.80;;;0.63;;
52858;SDS011;38721;53.098;6.596;2022-09-01T14:04:06;2.78;;;0.70;;
52858;SDS011;38721;53.098;6.596;2022-09-01T14:06:32;1.65;;;0.68;;
52858;SDS011;38721;53.098;6.596;2022-09-01T14:08:58;1.15;;;0.70;;
52858;SDS011;38721;53.098;6.596;2022-09-01T14:11:24;3.85;;;0.80;;
52858;SDS011;38721;53.098;6.596;2022-09-01T14:13:50;0.77;;;0.57;;
52858;SDS011;38721;53.098;6.596;2022-09-01T14:16:16;0.95;;;0.68;;
52858;SDS011;38721;53.098;6.596;2022-09-01T14:18:42;6.40;;;0.98;;
52858;SDS011;38721;53.098;6.596;2022-09-01T14:21:12;1.35;;;0.70;;
52858;SDS011;38721;53.098;6.596;2022-09-01T14:23:40;2.78;;;1.40;;
52858;SDS011;38721;53.098;6.596;2022-09-01T14:26:09;2.78;;;0.80;;
52858;SDS011;38721;53.098;6.596;2022-09-01T14:28:36;2.00;;;0.60;;
52858;SDS011;38721;53.098;6.596;2022-09-01T14:31:06;2.97;;;0.70;;
52858;SDS011;38721;53.098;6.596;2022-09-01T14:33:36;1.02;;;0.40;;
52858;SDS011;38721;53.098;6.596;2022-09-01T14:36:04;1.63;;;0.65;;
52858;SDS011;38721;53.098;6.596;2022-09-01T14:38:32;3.20;;;0.70;;
52858;SDS011;38721;53.098;6.596;2022-09-01T14:40:59;2.20;;;0.80;;
52858;SDS011;38721;53.098;6.596;2022-09-01T14:43:25;2.35;;;0.70;;
52858;SDS011;38721;53.098;6.596;2022-09-01T14:46:05;1.50;;;0.90;;
52858;SDS011;38721;53.098;6.596;2022-09-01T14:48:34;2.22;;;0.70;;
52858;SDS011;38721;53.098;6.596;2022-09-01T14:51:00;1.70;;;0.77;;
52858;SDS011;38721;53.098;6.596;2022-09-01T14:53:29;1.65;;;0.60;;
52858;SDS011;38721;53.098;6.596;2022-09-01T14:55:56;0.63;;;0.50;;
52858;SDS011;38721;53.098;6.596;2022-09-01T14:58:23;1.63;;;0.60;;
52858;SDS011;38721;53.098;6.596;2022-09-01T15:00:50;1.98;;;0.60;;
52858;SDS011;38721;53.098;6.596;2022-09-01T15:03:19;0.40;;;0.40;;
52858;SDS011;38721;53.098;6.596;2022-09-01T15:05:45;1.42;;;0.60;;
52858;SDS011;38721;53.098;6.596;2022-09-01T15:08:11;2.05;;;0.80;;
52858;SDS011;38721;53.098;6.596;2022-09-01T15:10:40;1.42;;;0.70;;
52858;SDS011;38721;53.098;6.596;2022-09-01T15:13:06;1.65;;;0.70;;
52858;SDS011;38721;53.098;6.596;2022-09-01T15:15:32;3.63;;;0.70;;
52858;SDS011;38721;53.098;6.596;2022-09-01T15:18:02;1.05;;;0.50;;
52858;SDS011;38721;53.098;6.596;2022-09-01T15:20:27;0.98;;;0.52;;
52858;SDS011;38721;53.098;6.596;2022-09-01T15:25:39;2.85;;;0.73;;
52858;SDS011;38721;53.098;6.596;2022-09-01T15:28:05;2.83;;;0.80;;
52858;SDS011;38721;53.098;6.596;2022-09-01T15:30:31;1.25;;;0.90;;
52858;SDS011;38721;53.098;6.596;2022-09-01T15:32:57;1.80;;;0.50;;
52858;SDS011;38721;53.098;6.596;2022-09-01T15:35:23;3.03;;;1.02;;
52858;SDS011;38721;53.098;6.596;2022-09-01T15:37:51;8.85;;;1.88;;
52858;SDS011;38721;53.098;6.596;2022-09-01T15:40:17;2.28;;;0.95;;
52858;SDS011;38721;53.098;6.596;2022-09-01T15:42:43;10.50;;;1.80;;
52858;SDS011;38721;53.098;6.596;2022-09-01T15:45:11;4.18;;;1.17;;
52858;SDS011;38721;53.098;6.596;2022-09-01T15:47:38;2.58;;;0.80;;
52858;SDS011;38721;53.098;6.596;2022-09-01T15:50:06;1.50;;;0.63;;
52858;SDS011;38721;53.098;6.596;2022-09-01T15:52:33;1.92;;;0.60;;
52858;SDS011;38721;53.098;6.596;2022-09-01T15:54:59;1.15;;;0.57;;
52858;SDS011;38721;53.098;6.596;2022-09-01T15:57:27;2.00;;;0.60;;
52858;SDS011;38721;53.098;6.596;2022-09-01T15:59:52;4.05;;;0.73;;
52858;SDS011;38721;53.098;6.596;2022-09-01T16:02:18;1.10;;;0.70;;
52858;SDS011;38721;53.098;6.596;2022-09-01T16:04:45;2.83;;;0.50;;
52858;SDS011;38721;53.098;6.596;2022-09-01T16:07:12;2.10;;;0.60;;
52858;SDS011;38721;53.098;6.596;2022-09-01T16:09:37;1.88;;;0.52;;
52858;SDS011;38721;53.098;6.596;2022-09-01T16:12:03;0.50;;;0.45;;
52858;SDS011;38721;53.098;6.596;2022-09-01T16:14:33;4.95;;;0.50;;
52858;SDS011;38721;53.098;6.596;2022-09-01T16:17:04;0.65;;;0.57;;
52858;SDS011;38721;53.098;6.596;2022-09-01T16:24:43;3.33;;;0.70;;
52858;SDS011;38721;53.098;6.596;2022-09-01T16:27:12;2.80;;;0.43;;
52858;SDS011;38721;53.098;6.596;2022-09-01T16:29:46;1.67;;;0.50;;